Time;durP1;ratioP1;P1;durP2;ratioP2;P2;SDS_P1;SDS_P2;PMS_P1;PMS_P2;Temp;Humidity;BMP_temperature;BMP_pressure;BME280_temperature;BME280_humidity;BME280_pressure;Samples;Min_cycle;Max_cycle;Signal;HPM_P1;HPM_P2
2023/11/15 00:01:04;;;;;;;;;;;;;;;9.57;88.46;99183.91;106334;1258;126307;-82
2023/11/15 00:03:49;;;;;;;;;;;;;;;9.56;88.27;99180.94;106526;1257;75305;-82
2023/11/15 00:06:16;;;;;;;;;;;;;;;9.56;88.20;99178.84;106385;1257;67508;-82
2023/11/15 00:08:42;;;;;;;;;;;;;;;9.53;88.20;99177.59;106281;1258;124984;-82
2023/11/15 00:11:10;;;;;;;;;;;;;;;9.50;88.06;99175.14;106478;1261;61996;-82
2023/11/15 00:13:37;;;;;;;;;;;;;;;9.47;88.12;99179.67;106257;1258;124740;-82
2023/11/15 00:16:04;;;;;;;;;;;;;;;9.45;87.98;99189.47;106385;1260;75537;-82
2023/11/15 00:18:31;;;;;;;;;;;;;;;9.43;88.07;99192.27;106462;1258;66322;-79
2023/11/15 00:20:58;;;;;;;;;;;;;;;9.42;88.09;99193.14;106226;1263;124861;-82
2023/11/15 00:23:26;;;;;;;;;;;;;;;9.42;88.12;99195.92;106134;1260;62551;-82
2023/11/15 00:25:53;;;;;;;;;;;;;;;9.42;88.21;99198.58;106051;1257;125134;-82
2023/11/15 00:28:20;;;;;;;;;;;;;;;9.42;88.16;99201.19;106297;1258;74172;-81
2023/11/15 00:30:46;;;;;;;;;;;;;;;9.42;88.20;99202.42;106162;1258;125292;-82
2023/11/15 00:33:13;;;;;;;;;;;;;;;9.42;88.31;99208.02;106218;1257;72772;-82
2023/11/15 00:35:40;;;;;;;;;;;;;;;9.44;88.41;99215.04;106269;1261;62173;-83
2023/11/15 00:38:07;;;;;;;;;;;;;;;9.45;88.53;99221.50;106132;1258;125028;-83
2023/11/15 00:40:35;;;;;;;;;;;;;;;9.43;88.41;99225.52;106223;1257;75208;-83
2023/11/15 00:43:03;;;;;;;;;;;;;;;9.39;88.53;99232.86;106157;1258;125135;-84
2023/11/15 00:45:30;;;;;;;;;;;;;;;9.35;88.72;99234.23;106340;1257;71389;-84
2023/11/15 00:47:57;;;;;;;;;;;;;;;9.30;88.72;99241.20;106342;1257;62189;-83
2023/11/15 00:50:23;;;;;;;;;;;;;;;9.25;88.79;99238.20;106311;1257;125325;-84
2023/11/15 00:52:50;;;;;;;;;;;;;;;9.21;89.00;99241.52;106377;1257;74222;-84
2023/11/15 00:55:17;;;;;;;;;;;;;;;9.19;89.08;99247.09;106259;1257;125073;-84
2023/11/15 00:57:45;;;;;;;;;;;;;;;9.14;89.10;99254.06;106305;1259;70753;-83
2023/11/15 01:00:24;;;;;;;;;;;;;;;9.09;89.06;99258.58;106333;1257;62016;-83
2023/11/15 01:02:51;;;;;;;;;;;;;;;9.05;89.21;99266.78;106196;1263;124997;-83
2023/11/15 01:05:18;;;;;;;;;;;;;;;9.03;89.35;99268.52;106194;1257;74155;-83
2023/11/15 01:07:45;;;;;;;;;;;;;;;8.99;89.35;99273.73;105995;1257;125285;-82
2023/11/15 01:10:12;;;;;;;;;;;;;;;8.95;89.58;99277.89;106098;1259;72828;-82
2023/11/15 01:12:39;;;;;;;;;;;;;;;8.91;89.93;99280.13;106149;1259;62121;-82
2023/11/15 01:15:06;;;;;;;;;;;;;;;8.88;90.04;99284.66;106167;1258;62153;-82
2023/11/15 01:17:35;;;;;;;;;;;;;;;8.85;89.99;99282.71;106196;1257;74264;-85
2023/11/15 01:20:03;;;;;;;;;;;;;;;8.82;90.05;99281.64;106375;1257;64720;-85
2023/11/15 01:22:30;;;;;;;;;;;;;;;8.80;90.29;99285.83;106154;1257;71619;-85
2023/11/15 01:24:56;;;;;;;;;;;;;;;8.78;90.21;99294.20;106383;1257;124993;-85
2023/11/15 01:27:25;;;;;;;;;;;;;;;8.74;90.22;99297.84;106538;1257;61934;-85
2023/11/15 01:29:52;;;;;;;;;;;;;;;8.72;90.25;99305.01;106360;1257;74160;-84
2023/11/15 01:32:19;;;;;;;;;;;;;;;8.70;90.22;99307.61;106193;1258;124860;-84
2023/11/15 01:34:45;;;;;;;;;;;;;;;8.71;90.39;99308.48;106323;1261;72578;-85
2023/11/15 01:37:12;;;;;;;;;;;;;;;8.71;90.39;99307.96;106265;1261;125078;-85
2023/11/15 01:39:39;;;;;;;;;;;;;;;8.69;90.32;99314.59;106343;1257;61970;-85
2023/11/15 01:42:05;;;;;;;;;;;;;;;8.64;90.11;99312.61;106158;1257;74302;-84
2023/11/15 01:44:33;;;;;;;;;;;;;;;8.56;89.78;99319.54;106299;1256;124856;-86
2023/11/15 01:47:00;;;;;;;;;;;;;;;8.50;89.74;99325.58;106393;1257;71429;-85
2023/11/15 01:49:27;;;;;;;;;;;;;;;8.46;89.90;99336.55;106327;1257;125070;-85
2023/11/15 01:51:54;;;;;;;;;;;;;;;8.39;89.76;99342.74;106209;1258;60731;-85
2023/11/15 01:54:22;;;;;;;;;;;;;;;8.34;89.86;99347.58;106341;1261;73400;-85
2023/11/15 01:56:49;;;;;;;;;;;;;;;8.29;89.83;99352.41;106298;1259;124771;-85
2023/11/15 01:59:16;;;;;;;;;;;;;;;8.26;89.84;99352.20;106201;1259;71723;-83
2023/11/15 02:01:43;;;;;;;;;;;;;;;8.21;89.81;99351.28;106136;1263;124942;-83
2023/11/15 02:04:09;;;;;;;;;;;;;;;8.15;89.84;99358.55;106249;1259;62114;-83
2023/11/15 02:06:37;;;;;;;;;;;;;;;8.12;89.87;99362.35;106336;1258;74131;-83
2023/11/15 02:09:05;;;;;;;;;;;;;;;8.06;89.84;99366.98;106250;1257;125001;-83
2023/11/15 02:11:32;;;;;;;;;;;;;;;8.01;89.97;99375.65;106388;1256;72432;-83
2023/11/15 02:14:01;;;;;;;;;;;;;;;7.93;89.92;99373.11;106147;1259;125136;-83
2023/11/15 02:16:28;;;;;;;;;;;;;;;7.90;90.13;99382.33;106209;1258;62149;-83
2023/11/15 02:18:56;;;;;;;;;;;;;;;7.87;90.04;99385.61;106000;1264;124957;-83
2023/11/15 02:21:23;;;;;;;;;;;;;;;7.84;90.08;99388.52;106370;1257;66085;-83
2023/11/15 02:23:51;;;;;;;;;;;;;;;7.83;90.11;99390.09;106394;1257;71478;-81
2023/11/15 02:26:19;;;;;;;;;;;;;;;7.82;90.18;99393.21;106299;1263;125133;-81
2023/11/15 02:28:46;;;;;;;;;;;;;;;7.81;90.08;99395.46;106516;1259;62003;-81
2023/11/15 02:31:12;;;;;;;;;;;;;;;7.75;90.00;99400.27;106215;1257;125677;-81
2023/11/15 02:33:39;;;;;;;;;;;;;;;7.70;89.98;99405.96;106347;1257;64999;-82
2023/11/15 02:36:06;;;;;;;;;;;;;;;7.66;90.09;99411.66;106154;1258;71408;-82
2023/11/15 02:38:33;;;;;;;;;;;;;;;7.62;90.17;99415.78;106222;1261;124974;-82
2023/11/15 02:41:00;;;;;;;;;;;;;;;7.57;90.24;99421.84;106214;1260;62171;-82
2023/11/15 02:43:27;;;;;;;;;;;;;;;7.56;90.34;99427.94;106158;1260;125163;-82
2023/11/15 02:45:54;;;;;;;;;;;;;;;7.57;90.46;99432.14;106240;1257;66008;-82
2023/11/15 02:48:21;;;;;;;;;;;;;;;7.56;90.41;99435.79;106370;1257;72697;-83
2023/11/15 02:50:48;;;;;;;;;;;;;;;7.53;90.30;99437.30;106359;1260;124759;-83
2023/11/15 02:53:15;;;;;;;;;;;;;;;7.51;90.42;99438.48;106363;1256;61701;-82
2023/11/15 02:55:41;;;;;;;;;;;;;;;7.50;90.47;99441.43;106239;1258;124894;-81
2023/11/15 02:58:08;;;;;;;;;;;;;;;7.49;90.55;99441.27;106314;1263;66293;-83
2023/11/15 03:00:34;;;;;;;;;;;;;;;7.51;90.53;99446.35;106356;1260;71414;-82
2023/11/15 03:03:01;;;;;;;;;;;;;;;7.50;90.51;99454.71;106179;1259;124994;-82
2023/11/15 03:05:28;;;;;;;;;;;;;;;7.48;90.47;99454.33;106350;1263;62094;-82
2023/11/15 03:07:55;;;;;;;;;;;;;;;7.46;90.42;99461.10;106376;1257;125336;-82
2023/11/15 03:10:22;;;;;;;;;;;;;;;7.46;90.56;99465.11;106411;1257;64756;-82
2023/11/15 03:12:48;;;;;;;;;;;;;;;7.47;90.56;99470.73;106524;1258;125453;-82
2023/11/15 03:15:15;;;;;;;;;;;;;;;7.47;90.46;99475.44;106361;1257;62724;-84
2023/11/15 03:17:42;;;;;;;;;;;;;;;7.45;90.38;99483.95;106305;1257;62142;-83
2023/11/15 03:20:09;;;;;;;;;;;;;;;7.44;90.31;99484.27;106321;1262;125049;-83
2023/11/15 03:22:35;;;;;;;;;;;;;;;7.44;90.44;99482.89;106436;1258;66280;-83
2023/11/15 03:25:02;;;;;;;;;;;;;;;7.43;90.34;99485.14;106095;1264;125135;-83
2023/11/15 03:27:29;;;;;;;;;;;;;;;7.43;90.30;99484.77;106341;1257;61984;-83
2023/11/15 03:29:56;;;;;;;;;;;;;;;7.40;90.23;99487.54;106251;1257;60302;-83
2023/11/15 03:32:23;;;;;;;;;;;;;;;7.40;90.33;99490.33;106141;1257;124736;-82
2023/11/15 03:34:50;;;;;;;;;;;;;;;7.38;90.25;99497.80;106159;1257;66889;-82
2023/11/15 03:37:16;;;;;;;;;;;;;;;7.38;90.35;99500.07;105911;1258;125480;-82
2023/11/15 03:39:43;;;;;;;;;;;;;;;7.39;90.30;99501.29;106327;1256;62160;-82
2023/11/15 03:42:12;;;;;;;;;;;;;;;7.38;90.29;99506.02;106380;1256;61981;-82
2023/11/15 03:44:38;;;;;;;;;;;;;;;7.37;90.26;99507.35;106122;1256;125172;-82
2023/11/15 03:47:05;;;;;;;;;;;;;;;7.38;90.40;99509.66;106299;1262;65072;-82
2023/11/15 03:49:32;;;;;;;;;;;;;;;7.37;90.23;99512.77;106236;1259;124988;-82
2023/11/15 03:51:58;;;;;;;;;;;;;;;7.34;90.25;99518.65;106357;1259;62039;-82
2023/11/15 03:54:25;;;;;;;;;;;;;;;7.29;90.10;99521.37;106398;1257;62089;-82
2023/11/15 03:56:51;;;;;;;;;;;;;;;7.25;90.20;99520.95;106230;1260;125562;-82
2023/11/15 03:59:19;;;;;;;;;;;;;;;7.19;90.05;99527.82;106282;1257;64994;-82
2023/11/15 04:01:48;;;;;;;;;;;;;;;7.16;90.16;99527.05;106404;1256;124970;-82
2023/11/15 04:04:15;;;;;;;;;;;;;;;7.16;90.22;99535.25;106388;1257;62133;-83
2023/11/15 04:06:42;;;;;;;;;;;;;;;7.14;90.28;99536.61;106289;1257;61991;-84
2023/11/15 04:09:10;;;;;;;;;;;;;;;7.13;90.28;99544.96;106404;1257;74936;-83
2023/11/15 04:11:37;;;;;;;;;;;;;;;7.13;90.22;99545.84;106291;1263;66165;-83
2023/11/15 04:14:04;;;;;;;;;;;;;;;7.13;90.26;99548.11;106137;1257;125800;-84
2023/11/15 04:16:31;;;;;;;;;;;;;;;7.12;90.19;99557.67;106200;1258;62191;-84
2023/11/15 04:18:58;;;;;;;;;;;;;;;7.08;89.97;99550.09;106144;1257;125320;-82
2023/11/15 04:21:26;;;;;;;;;;;;;;;7.06;89.95;99559.48;106217;1264;74061;-83
2023/11/15 04:23:53;;;;;;;;;;;;;;;7.03;89.80;99556.98;106435;1259;65115;-84
2023/11/15 04:26:21;;;;;;;;;;;;;;;7.03;89.82;99559.59;106123;1259;125081;-84
2023/11/15 04:28:48;;;;;;;;;;;;;;;7.01;89.65;99564.78;106456;1257;62025;-83
2023/11/15 04:31:15;;;;;;;;;;;;;;;6.98;89.74;99573.45;106400;1258;125183;-83
2023/11/15 04:33:42;;;;;;;;;;;;;;;7.03;89.94;99580.70;106435;1257;75463;-84
2023/11/15 04:36:10;;;;;;;;;;;;;;;7.05;89.81;99583.89;106339;1257;65210;-83
2023/11/15 04:38:37;;;;;;;;;;;;;;;7.07;89.58;99588.44;106303;1260;125140;-82
2023/11/15 04:41:05;;;;;;;;;;;;;;;7.07;89.56;99589.86;106342;1263;62163;-83
2023/11/15 04:43:32;;;;;;;;;;;;;;;7.08;89.36;99592.65;106284;1262;125425;-83
2023/11/15 04:45:59;;;;;;;;;;;;;;;7.08;89.34;99590.21;106314;1257;74171;-83
2023/11/15 04:48:26;;;;;;;;;;;;;;;7.09;89.29;99590.58;106389;1257;66345;-82
2023/11/15 04:50:54;;;;;;;;;;;;;;;7.08;89.04;99595.97;106324;1258;125156;-82
2023/11/15 04:53:21;;;;;;;;;;;;;;;7.04;88.93;99595.38;106307;1257;62087;-83
2023/11/15 04:55:47;;;;;;;;;;;;;;;7.03;88.82;99599.02;106264;1257;125019;-83
2023/11/15 04:58:14;;;;;;;;;;;;;;;7.00;88.76;99606.11;106212;1258;74401;-83
2023/11/15 05:00:41;;;;;;;;;;;;;;;6.97;88.61;99611.29;106329;1258;66028;-82
2023/11/15 05:03:10;;;;;;;;;;;;;;;6.96;88.61;99618.73;106174;1257;125035;-82
2023/11/15 05:05:37;;;;;;;;;;;;;;;6.95;88.72;99627.65;106254;1258;62177;-81
2023/11/15 05:08:03;;;;;;;;;;;;;;;6.97;88.69;99631.86;106259;1258;125009;-82
2023/11/15 05:10:30;;;;;;;;;;;;;;;6.99;88.61;99632.42;106223;1257;75236;-82
2023/11/15 05:12:56;;;;;;;;;;;;;;;6.99;88.58;99640.63;106386;1257;125203;-84
2023/11/15 05:15:23;;;;;;;;;;;;;;;7.00;88.56;99645.52;106485;1263;71436;-84
2023/11/15 05:17:50;;;;;;;;;;;;;;;7.01;88.61;99651.48;106375;1256;62063;-83
2023/11/15 05:20:17;;;;;;;;;;;;;;;7.03;88.59;99653.95;106402;1260;124791;-81
2023/11/15 05:22:43;;;;;;;;;;;;;;;7.02;88.43;99657.77;106409;1260;75542;-83
2023/11/15 05:25:10;;;;;;;;;;;;;;;7.02;88.38;99664.06;106354;1257;123892;-82
2023/11/15 05:27:37;;;;;;;;;;;;;;;7.03;88.38;99670.19;106557;1258;72719;-84
2023/11/15 05:30:03;;;;;;;;;;;;;;;7.04;88.23;99671.94;106334;1257;62206;-82
2023/11/15 05:32:30;;;;;;;;;;;;;;;7.03;88.05;99675.76;106474;1257;124774;-83
2023/11/15 05:34:57;;;;;;;;;;;;;;;6.99;87.99;99679.17;106375;1259;74158;-83
2023/11/15 05:37:23;;;;;;;;;;;;;;;6.98;88.00;99678.11;106384;1262;125003;-82
2023/11/15 05:39:50;;;;;;;;;;;;;;;6.96;87.85;99682.77;106403;1259;72404;-82
2023/11/15 05:42:17;;;;;;;;;;;;;;;6.93;87.89;99686.02;106485;1258;62146;-82
2023/11/15 05:44:43;;;;;;;;;;;;;;;6.91;87.67;99692.77;106264;1258;124822;-83
2023/11/15 05:47:10;;;;;;;;;;;;;;;6.85;87.48;99695.23;106393;1257;74512;-83
2023/11/15 05:49:37;;;;;;;;;;;;;;;6.83;87.69;99701.98;106427;1257;124801;-85
2023/11/15 05:52:04;;;;;;;;;;;;;;;6.82;87.62;99704.23;106469;1258;72740;-89
2023/11/15 05:54:32;;;;;;;;;;;;;;;6.81;87.70;99706.48;106373;1263;62207;-84
2023/11/15 05:56:58;;;;;;;;;;;;;;;6.81;87.66;99715.73;106394;1261;123719;-81
2023/11/15 05:59:26;;;;;;;;;;;;;;;6.80;87.67;99716.40;106360;1258;75546;-81
2023/11/15 06:01:54;;;;;;;;;;;;;;;6.81;87.73;99720.80;106612;1257;125131;-81
2023/11/15 06:04:22;;;;;;;;;;;;;;;6.81;87.61;99726.38;106555;1257;73568;-82
2023/11/15 06:06:48;;;;;;;;;;;;;;;6.78;87.50;99728.73;106501;1257;125547;-83
2023/11/15 06:09:17;;;;;;;;;;;;;;;6.78;87.60;99738.67;106395;1258;62008;-81
2023/11/15 06:11:44;;;;;;;;;;;;;;;6.80;87.67;99742.21;106494;1258;75232;-83
2023/11/15 06:14:14;;;;;;;;;;;;;;;6.79;87.54;99746.38;106284;1264;125322;-82
2023/11/15 06:16:41;;;;;;;;;;;;;;;6.78;87.50;99756.98;106467;1257;72000;-82
2023/11/15 06:19:08;;;;;;;;;;;;;;;6.77;87.40;99759.39;106347;1257;124984;-83
2023/11/15 06:21:35;;;;;;;;;;;;;;;6.76;87.55;99760.77;106369;1261;62096;-82
2023/11/15 06:24:01;;;;;;;;;;;;;;;6.78;87.54;99762.92;106341;1257;74522;-81
2023/11/15 06:26:29;;;;;;;;;;;;;;;6.79;87.45;99760.31;106267;1261;124837;-82
2023/11/15 06:28:55;;;;;;;;;;;;;;;6.79;87.45;99766.77;106495;1257;72038;-80
2023/11/15 06:31:25;;;;;;;;;;;;;;;6.79;87.36;99770.09;106261;1261;124952;-80
2023/11/15 06:33:52;;;;;;;;;;;;;;;6.77;87.32;99775.61;106332;1258;60202;-80
2023/11/15 06:36:20;;;;;;;;;;;;;;;6.78;87.36;99778.61;106382;1261;75337;-81
2023/11/15 06:38:47;;;;;;;;;;;;;;;6.78;87.24;99784.88;106334;1257;124955;-78
2023/11/15 06:41:15;;;;;;;;;;;;;;;6.78;87.30;99795.86;106328;1258;72417;-77
2023/11/15 06:43:41;;;;;;;;;;;;;;;6.76;87.12;99797.22;106255;1257;124735;-75
2023/11/15 06:46:08;;;;;;;;;;;;;;;6.73;87.08;99800.98;105586;1258;62494;-74
2023/11/15 06:48:35;;;;;;;;;;;;;;;6.72;87.15;99806.52;105841;1257;75631;-75
2023/11/15 06:51:01;;;;;;;;;;;;;;;6.74;87.30;99805.70;105808;1260;124939;-75
2023/11/15 06:53:28;;;;;;;;;;;;;;;6.73;87.30;99813.17;105892;1257;72725;-75
2023/11/15 06:55:55;;;;;;;;;;;;;;;6.71;87.12;99814.72;105886;1260;125413;-75
2023/11/15 06:58:22;;;;;;;;;;;;;;;6.73;87.05;99817.53;106005;1257;62186;-75
2023/11/15 07:00:49;;;;;;;;;;;;;;;6.73;87.08;99825.38;105627;1258;125531;-74
2023/11/15 07:03:17;;;;;;;;;;;;;;;6.73;87.03;99825.39;106023;1259;66407;-74
2023/11/15 07:05:48;;;;;;;;;;;;;;;6.73;87.11;99829.21;105945;1258;71293;-75
2023/11/15 07:08:16;;;;;;;;;;;;;;;6.74;87.00;99837.61;105910;1262;125812;-76
2023/11/15 07:10:43;;;;;;;;;;;;;;;6.73;87.07;99844.91;106743;1257;62050;-79
2023/11/15 07:13:12;;;;;;;;;;;;;;;6.73;86.99;99847.86;106559;1257;125329;-80
2023/11/15 07:15:39;;;;;;;;;;;;;;;6.74;87.00;99850.69;108845;1257;65630;-80
2023/11/15 07:18:06;;;;;;;;;;;;;;;6.77;86.97;99855.83;108083;1261;71439;-80
2023/11/15 07:20:34;;;;;;;;;;;;;;;6.80;86.90;99863.75;106376;1258;125005;-79
2023/11/15 07:23:02;;;;;;;;;;;;;;;6.81;86.82;99868.13;106614;1261;61123;-80
2023/11/15 07:25:29;;;;;;;;;;;;;;;6.87;86.95;99875.95;106587;1261;125119;-79
2023/11/15 07:27:58;;;;;;;;;;;;;;;6.87;86.69;99881.34;106421;1257;65094;-81
2023/11/15 07:30:25;;;;;;;;;;;;;;;6.83;86.51;99882.48;106496;1257;70133;-81
2023/11/15 07:32:54;;;;;;;;;;;;;;;6.84;86.65;99891.58;106670;1259;124938;-80
2023/11/15 07:35:21;;;;;;;;;;;;;;;6.85;86.50;99895.25;106580;1257;62065;-80
2023/11/15 07:37:48;;;;;;;;;;;;;;;6.84;86.61;99897.15;106072;1259;123691;-80
2023/11/15 07:40:15;;;;;;;;;;;;;;;6.83;86.64;99903.40;106574;1257;65970;-80
2023/11/15 07:42:42;;;;;;;;;;;;;;;6.83;86.68;99905.49;106534;1257;71890;-81
2023/11/15 07:45:09;;;;;;;;;;;;;;;6.84;86.74;99913.54;106375;1258;124966;-80
2023/11/15 07:47:35;;;;;;;;;;;;;;;6.85;86.83;99917.75;106303;1261;62011;-79
2023/11/15 07:50:06;;;;;;;;;;;;;;;6.87;86.82;99921.48;106332;1257;124781;-79
2023/11/15 07:52:32;;;;;;;;;;;;;;;6.88;86.80;99926.41;106294;1260;67631;-79
2023/11/15 07:55:00;;;;;;;;;;;;;;;6.92;86.78;99927.56;105884;1258;125023;-80
2023/11/15 07:57:26;;;;;;;;;;;;;;;6.94;86.59;99929.86;106301;1257;62061;-80
2023/11/15 07:59:53;;;;;;;;;;;;;;;6.97;86.63;99935.16;106314;1258;62427;-80
2023/11/15 08:02:20;;;;;;;;;;;;;;;6.97;86.61;99937.98;105830;1258;126031;-79
2023/11/15 08:04:46;;;;;;;;;;;;;;;6.98;86.57;99940.09;106168;1258;64826;-80
2023/11/15 08:07:13;;;;;;;;;;;;;;;6.95;86.29;99947.48;106190;1257;125379;-79
2023/11/15 08:09:41;;;;;;;;;;;;;;;6.94;86.37;99951.84;106099;1261;62254;-79
2023/11/15 08:12:08;;;;;;;;;;;;;;;6.93;86.32;99957.05;106364;1261;62109;-79
2023/11/15 08:14:34;;;;;;;;;;;;;;;6.95;86.38;99964.77;106160;1257;124916;-79
2023/11/15 08:17:01;;;;;;;;;;;;;;;6.96;86.36;99967.08;106236;1259;66646;-79
2023/11/15 08:19:28;;;;;;;;;;;;;;;6.97;86.41;99966.92;106267;1257;125388;-79
2023/11/15 08:21:56;;;;;;;;;;;;;;;6.99;86.35;99973.95;106430;1258;62454;-79
2023/11/15 08:24:24;;;;;;;;;;;;;;;7.04;86.28;99979.65;106429;1258;61155;-79
2023/11/15 08:26:53;;;;;;;;;;;;;;;7.03;86.13;99985.39;106309;1258;124822;-79
2023/11/15 08:29:20;;;;;;;;;;;;;;;7.03;86.16;99996.39;106287;1257;65442;-79
2023/11/15 08:31:48;;;;;;;;;;;;;;;7.05;86.26;100004.11;106167;1257;125238;-79
2023/11/15 08:34:15;;;;;;;;;;;;;;;7.03;85.95;100007.55;106289;1261;60354;-79
2023/11/15 08:36:44;;;;;;;;;;;;;;;6.98;85.95;100013.86;106318;1262;62005;-80
2023/11/15 08:39:15;;;;;;;;;;;;;;;6.96;86.03;100016.42;106300;1258;75429;-79
2023/11/15 08:41:41;;;;;;;;;;;;;;;6.95;86.11;100024.96;106473;1257;66318;-79
2023/11/15 08:44:09;;;;;;;;;;;;;;;6.95;86.26;100026.70;106307;1258;124986;-79
2023/11/15 08:46:40;;;;;;;;;;;;;;;6.96;86.28;100033.70;106288;1258;60065;-79
2023/11/15 08:49:07;;;;;;;;;;;;;;;6.96;86.26;100038.23;106320;1261;125387;-79
2023/11/15 08:51:33;;;;;;;;;;;;;;;6.99;86.44;100043.18;106257;1259;74487;-79
2023/11/15 08:54:00;;;;;;;;;;;;;;;6.99;86.36;100042.33;106380;1261;65169;-78
2023/11/15 08:56:27;;;;;;;;;;;;;;;6.97;86.26;100051.70;106200;1257;125034;-79
2023/11/15 08:58:54;;;;;;;;;;;;;;;6.99;86.43;100054.00;106401;1258;62113;-79
2023/11/15 09:01:24;;;;;;;;;;;;;;;7.00;86.46;100057.70;106263;1258;125564;-79
2023/11/15 09:03:51;;;;;;;;;;;;;;;7.02;86.44;100063.17;106271;1257;75650;-79
2023/11/15 09:06:18;;;;;;;;;;;;;;;7.01;86.30;100072.38;106245;1261;65092;-79
2023/11/15 09:08:46;;;;;;;;;;;;;;;6.98;86.36;100076.30;106317;1257;125719;-79
2023/11/15 09:11:13;;;;;;;;;;;;;;;6.97;86.53;100080.13;106223;1259;62145;-79
2023/11/15 09:13:40;;;;;;;;;;;;;;;7.00;86.52;100087.73;106111;1258;125020;-79
2023/11/15 09:16:07;;;;;;;;;;;;;;;6.99;86.57;100089.79;106261;1264;73824;-79
2023/11/15 09:18:34;;;;;;;;;;;;;;;6.97;86.53;100092.52;106259;1257;65818;-79
2023/11/15 09:21:00;;;;;;;;;;;;;;;6.96;86.56;100097.71;106057;1259;174111;-79
2023/11/15 09:23:29;;;;;;;;;;;;;;;6.97;86.73;100097.91;106309;1259;62194;-79
2023/11/15 09:25:58;;;;;;;;;;;;;;;6.99;86.86;100102.32;106285;1258;125019;-80
2023/11/15 09:28:25;;;;;;;;;;;;;;;7.03;86.99;100105.77;106342;1258;74209;-79
2023/11/15 09:30:52;;;;;;;;;;;;;;;7.07;86.95;100117.20;105629;1257;125476;-80
2023/11/15 09:33:19;;;;;;;;;;;;;;;7.08;87.05;100121.27;106252;1258;71478;-79
2023/11/15 09:35:47;;;;;;;;;;;;;;;7.07;87.14;100126.80;106211;1261;62078;-80
2023/11/15 09:38:14;;;;;;;;;;;;;;;6.93;87.02;100124.15;106367;1259;125036;-80
2023/11/15 09:40:41;;;;;;;;;;;;;;;6.77;86.95;100133.62;106267;1259;75059;-79
2023/11/15 09:43:10;;;;;;;;;;;;;;;6.68;87.14;100131.92;106174;1264;125714;-79
2023/11/15 09:45:37;;;;;;;;;;;;;;;6.64;87.33;100136.34;106302;1258;71172;-79
2023/11/15 09:48:08;;;;;;;;;;;;;;;6.62;87.49;100137.67;106212;1257;62907;-79
2023/11/15 09:50:36;;;;;;;;;;;;;;;6.65;87.73;100141.60;106278;1257;125001;-80
2023/11/15 09:53:05;;;;;;;;;;;;;;;6.69;87.73;100145.56;106354;1261;74602;-80
2023/11/15 09:55:33;;;;;;;;;;;;;;;6.72;87.67;100152.78;106199;1258;125231;-78
2023/11/15 09:58:00;;;;;;;;;;;;;;;6.76;87.75;100154.16;105693;1258;72761;-78
2023/11/15 10:00:30;;;;;;;;;;;;;;;6.85;87.78;100161.20;105867;1258;62034;-78
2023/11/15 10:02:57;;;;;;;;;;;;;;;6.93;87.70;100168.79;106292;1264;125651;-88
2023/11/15 10:05:26;;;;;;;;;;;;;;;6.98;87.46;100173.11;106396;1258;75281;-87
2023/11/15 10:08:10;;;;;;;;;;;;;;;7.00;87.26;100171.80;106210;1257;125193;-88
2023/11/15 10:10:38;;;;;;;;;;;;;;;7.03;86.93;100173.98;106386;1258;71436;-87
2023/11/15 10:13:14;;;;;;;;;;;;;;;7.05;86.91;100179.43;106332;1258;125469;-87
2023/11/15 10:15:44;;;;;;;;;;;;;;;7.06;86.67;100181.91;106484;1258;61943;-87
2023/11/15 10:18:19;;;;;;;;;;;;;;;7.06;86.57;100185.58;106638;1260;75363;-88
2023/11/15 10:20:47;;;;;;;;;;;;;;;7.08;86.39;100187.02;106428;1258;125387;-87
2023/11/15 10:23:14;;;;;;;;;;;;;;;7.13;86.44;100194.52;106535;1256;71368;-87
2023/11/15 10:25:47;;;;;;;;;;;;;;;7.22;86.22;100196.53;106324;1261;124451;-87
2023/11/15 10:28:15;;;;;;;;;;;;;;;7.31;85.84;100195.55;106707;1259;62063;-88
2023/11/15 10:30:41;;;;;;;;;;;;;;;7.37;85.48;100201.49;106479;1258;75506;-87
2023/11/15 10:33:13;;;;;;;;;;;;;;;7.39;85.17;100199.80;106443;1258;125762;-88
2023/11/15 10:35:41;;;;;;;;;;;;;;;7.40;84.93;100206.30;106406;1259;71402;-88
2023/11/15 10:38:14;;;;;;;;;;;;;;;7.40;84.63;100211.02;106366;1258;125213;-87
2023/11/15 10:40:41;;;;;;;;;;;;;;;7.41;84.33;100215.73;106441;1260;61943;-88
2023/11/15 10:43:08;;;;;;;;;;;;;;;7.42;84.48;100213.51;106459;1259;125125;-87
2023/11/15 10:45:35;;;;;;;;;;;;;;;7.48;84.55;100215.23;106392;1258;65049;-88
2023/11/15 10:48:05;;;;;;;;;;;;;;;7.53;84.46;100222.55;106409;1258;72751;-87
2023/11/15 10:50:34;;;;;;;;;;;;;;;7.54;84.10;100227.46;106402;1259;125008;-88
2023/11/15 10:53:02;;;;;;;;;;;;;;;7.53;84.09;100232.16;106529;1261;62014;-88
2023/11/15 10:55:28;;;;;;;;;;;;;;;7.53;83.98;100236.35;106398;1261;125196;-87
2023/11/15 10:57:57;;;;;;;;;;;;;;;7.53;83.78;100238.97;106561;1261;65634;-88
2023/11/15 11:00:24;;;;;;;;;;;;;;;7.50;83.29;100244.83;106406;1257;72726;-87
2023/11/15 11:02:51;;;;;;;;;;;;;;;7.50;83.38;100244.30;106448;1258;124405;-88
2023/11/15 11:05:24;;;;;;;;;;;;;;;7.52;83.34;100249.95;106599;1257;62151;-88
2023/11/15 11:07:57;;;;;;;;;;;;;;;7.55;83.17;100249.67;106448;1258;124664;-87
2023/11/15 11:10:28;;;;;;;;;;;;;;;7.51;82.49;100264.74;106441;1257;64841;-88
2023/11/15 11:12:56;;;;;;;;;;;;;;;7.44;82.53;100265.23;106426;1258;124038;-88
2023/11/15 11:15:31;;;;;;;;;;;;;;;7.36;82.57;100270.26;106496;1263;62062;-86
2023/11/15 11:18:03;;;;;;;;;;;;;;;7.31;82.79;100275.16;106656;1256;62011;-88
2023/11/15 11:20:34;;;;;;;;;;;;;;;7.27;82.72;100270.83;106505;1256;123837;-85
2023/11/15 11:23:11;;;;;;;;;;;;;;;7.27;82.97;100280.95;106486;1257;64955;-87
2023/11/15 11:25:40;;;;;;;;;;;;;;;7.30;83.09;100284.38;106487;1258;123867;-86
2023/11/15 11:28:11;;;;;;;;;;;;;;;7.33;83.01;100290.39;106576;1258;62230;-87
2023/11/15 11:30:38;;;;;;;;;;;;;;;7.38;82.99;100293.86;106579;1258;60090;-87
2023/11/15 11:33:06;;;;;;;;;;;;;;;7.36;82.42;100305.34;106452;1258;124920;-87
2023/11/15 11:35:34;;;;;;;;;;;;;;;7.35;82.40;100303.56;106570;1261;65243;-86
2023/11/15 11:38:01;;;;;;;;;;;;;;;7.42;82.69;100304.64;106724;1261;123679;-87
2023/11/15 11:40:32;;;;;;;;;;;;;;;7.50;82.40;100310.27;106469;1259;62030;-80
2023/11/15 11:43:30;;;;;;;;;;;;;;;7.52;82.24;100311.23;106107;1258;125475;-80
2023/11/15 11:45:58;;;;;;;;;;;;;;;7.54;81.96;100313.55;106350;1257;74285;-80
2023/11/15 11:48:26;;;;;;;;;;;;;;;7.55;81.80;100315.33;106548;1257;66439;-80
2023/11/15 11:50:53;;;;;;;;;;;;;;;7.58;81.56;100323.80;106090;1263;125121;-78
2023/11/15 11:53:23;;;;;;;;;;;;;;;7.61;81.43;100325.98;106375;1257;62167;-79
2023/11/15 11:55:50;;;;;;;;;;;;;;;7.64;80.96;100329.03;106145;1258;125025;-79
2023/11/15 11:58:17;;;;;;;;;;;;;;;7.62;80.67;100334.92;106218;1259;75506;-79
2023/11/15 12:00:44;;;;;;;;;;;;;;;7.58;80.31;100341.95;106258;1258;125096;-79
2023/11/15 12:03:11;;;;;;;;;;;;;;;7.60;80.38;100341.48;106352;1257;72696;-80
2023/11/15 12:05:38;;;;;;;;;;;;;;;7.59;80.03;100344.80;106305;1259;60421;-80
2023/11/15 12:08:05;;;;;;;;;;;;;;;7.59;79.60;100347.24;106290;1261;125664;-79
2023/11/15 12:10:33;;;;;;;;;;;;;;;7.55;79.18;100354.63;106386;1258;74200;-80
2023/11/15 12:13:05;;;;;;;;;;;;;;;7.49;79.03;100361.93;106035;1258;125097;-80
2023/11/15 12:15:35;;;;;;;;;;;;;;;7.45;79.06;100363.74;106301;1259;73818;-79
2023/11/15 12:18:02;;;;;;;;;;;;;;;7.44;78.89;100376.25;106273;1259;62176;-80
2023/11/15 12:20:30;;;;;;;;;;;;;;;7.37;78.30;100375.72;106133;1258;125343;-80
2023/11/15 12:23:13;;;;;;;;;;;;;;;7.31;77.93;100375.52;106500;1258;75521;-80
2023/11/15 12:25:45;;;;;;;;;;;;;;;7.26;78.07;100376.92;106287;1260;124856;-80
2023/11/15 12:28:13;;;;;;;;;;;;;;;7.23;78.27;100377.51;106221;1260;72712;-81
2023/11/15 12:30:39;;;;;;;;;;;;;;;7.19;78.20;100378.80;106307;1261;62627;-78
2023/11/15 12:33:06;;;;;;;;;;;;;;;7.19;77.99;100387.02;105565;1257;124706;-79
2023/11/15 12:35:33;;;;;;;;;;;;;;;7.19;77.75;100390.15;105689;1257;75344;-78
2023/11/15 12:38:04;;;;;;;;;;;;;;;7.22;78.06;100391.63;105493;1258;125225;-79
2023/11/15 12:40:34;;;;;;;;;;;;;;;7.26;78.11;100397.86;106241;1261;71628;-79
2023/11/15 12:43:21;;;;;;;;;;;;;;;7.27;77.80;100399.13;108807;1257;124890;-80